CMS2 weather

Middleton (Soldiers Memorial Hospital) Heliport
Middleton, Nova Scotia, Canada

Public forecast

Using degrees Celsius for public forecast. Weather courtesy of forecast.io.

METAR (pilot weather report)

Closest report is CFB Greenwood, 6.5 nm (12.0 km) ENE. Retrieved 2019/08/21 01:00 UTC (43 minutes ago):

CYZX 210100Z 26002KT 15SM SKC 20/14 A3002 RMK SLP168

TAF (pilot weather forecast)

Forecast is more than 12 hours old.

Closest forecast is CFB Greenwood, 6.5 nm (12.0 km) ENE. Retrieved 2019/08/20 00:33 UTC (1 day ago):

TAF CYZX 202330Z 2100/2124 27007KT P6SM SKC BECMG 2100/2102 VRB03KT BECMG 2114/2115 24007KT FM211700 32007KT P6SM FEW040 SCT250 FM212200 24005KT P6SM SCT120 BKN200 RMK NXT FCST BY 210600Z